カーブル の空港の天気 - METARとTAF

カーブル国際空港 ( OAKB / KBL ) - アフガニスタン カーブル
飛行場実況気象(Metar)
観測時間06/29 06:20 AFT (06/29 01:50 UTC)
風向・風速西 3m/s
視程10km以上
天気現象
なし
気温21℃
湿度53%
気圧1015hPa
METAROAKB 290150Z 28005KT CAVOK 21/11 Q1015 NOSIG RMK BLU BLU
過去の天気等 Google飛行場航空写真 Wunderground天気予報

過去48時間のMETAR

飛行場予報(TAF)
発表時間: 6/29 03:35 AFT (6/28 23:05 UTC)
予報対象時間: 29日4時 AFT ~ 30日4時 AFT
風向・風速南 4m/s
視程10km以上
なし
29日4時 AFT ~ 29日6時 AFT に徐々に
風向・風速不定 1m/s
29日10時 AFT ~ 29日12時 AFT に徐々に
風向・風速北北西 5m/s
29日12時 AFT ~ 29日14時 AFT に徐々に
風向・風速北 6m/s 瞬間風速 13m/s
視程10km以上
少しの雲 雲底高度 2,440m
30日0時 AFT ~ 30日2時 AFT に徐々に
風向・風速北 5m/s
TAF OAKB 282305Z 2900/2924 17008KT CAVOK
BECMG 2900/2902 VRB02KT
BECMG 2906/2908 34010KT
BECMG 2908/2910 36012G25KT 9999 FEW080
BECMG 2920/2922 35010KT